sensor_id;sensor_type;location;lat;lon;timestamp;temperature;humidity
34137;DHT22;20414;50.860;4.382;2022-11-15T00:00:47;14.20;72.70
34137;DHT22;20414;50.860;4.382;2022-11-15T00:03:18;14.10;72.70
34137;DHT22;20414;50.860;4.382;2022-11-15T00:05:44;14.20;72.70
34137;DHT22;20414;50.860;4.382;2022-11-15T00:08:11;14.10;73.40
34137;DHT22;20414;50.860;4.382;2022-11-15T00:10:37;14.20;72.70
34137;DHT22;20414;50.860;4.382;2022-11-15T00:13:11;14.20;72.80
34137;DHT22;20414;50.860;4.382;2022-11-15T00:15:38;14.20;72.70
34137;DHT22;20414;50.860;4.382;2022-11-15T00:18:05;14.20;73.40
34137;DHT22;20414;50.860;4.382;2022-11-15T00:20:34;14.20;72.70
34137;DHT22;20414;50.860;4.382;2022-11-15T00:23:00;14.20;72.70
34137;DHT22;20414;50.860;4.382;2022-11-15T00:25:25;14.20;72.70
34137;DHT22;20414;50.860;4.382;2022-11-15T00:27:55;14.20;72.70
34137;DHT22;20414;50.860;4.382;2022-11-15T00:30:22;14.20;72.70
34137;DHT22;20414;50.860;4.382;2022-11-15T00:32:48;14.20;73.40
34137;DHT22;20414;50.860;4.382;2022-11-15T00:35:13;14.20;72.70
34137;DHT22;20414;50.860;4.382;2022-11-15T00:37:42;14.20;73.40
34137;DHT22;20414;50.860;4.382;2022-11-15T00:40:09;14.20;72.70
34137;DHT22;20414;50.860;4.382;2022-11-15T00:42:35;14.20;72.70
34137;DHT22;20414;50.860;4.382;2022-11-15T00:45:01;14.10;72.60
34137;DHT22;20414;50.860;4.382;2022-11-15T00:47:27;14.20;72.60
34137;DHT22;20414;50.860;4.382;2022-11-15T00:49:52;14.20;72.60
34137;DHT22;20414;50.860;4.382;2022-11-15T00:52:18;14.20;72.60
34137;DHT22;20414;50.860;4.382;2022-11-15T00:54:43;14.20;72.60
34137;DHT22;20414;50.860;4.382;2022-11-15T00:57:09;14.20;72.60
34137;DHT22;20414;50.860;4.382;2022-11-15T00:59:35;14.20;72.60
34137;DHT22;20414;50.860;4.382;2022-11-15T01:02:00;14.20;72.60
34137;DHT22;20414;50.860;4.382;2022-11-15T01:04:26;14.20;72.60
34137;DHT22;20414;50.860;4.382;2022-11-15T01:06:52;14.20;72.60
34137;DHT22;20414;50.860;4.382;2022-11-15T01:09:18;14.20;72.60
34137;DHT22;20414;50.860;4.382;2022-11-15T01:11:44;14.20;72.60
34137;DHT22;20414;50.860;4.382;2022-11-15T01:14:09;14.20;72.60
34137;DHT22;20414;50.860;4.382;2022-11-15T01:16:36;14.20;72.60
34137;DHT22;20414;50.860;4.382;2022-11-15T01:19:02;14.20;72.50
34137;DHT22;20414;50.860;4.382;2022-11-15T01:21:27;14.20;72.50
34137;DHT22;20414;50.860;4.382;2022-11-15T01:23:54;14.20;72.50
34137;DHT22;20414;50.860;4.382;2022-11-15T01:26:20;14.20;72.50
34137;DHT22;20414;50.860;4.382;2022-11-15T01:28:47;14.20;72.50
34137;DHT22;20414;50.860;4.382;2022-11-15T01:31:15;14.20;72.50
34137;DHT22;20414;50.860;4.382;2022-11-15T01:33:41;14.20;72.50
34137;DHT22;20414;50.860;4.382;2022-11-15T01:36:21;14.20;73.20
34137;DHT22;20414;50.860;4.382;2022-11-15T01:38:53;14.20;72.50
34137;DHT22;20414;50.860;4.382;2022-11-15T01:41:25;14.20;72.50
34137;DHT22;20414;50.860;4.382;2022-11-15T01:43:56;14.20;72.40
34137;DHT22;20414;50.860;4.382;2022-11-15T01:46:33;14.20;72.40
34137;DHT22;20414;50.860;4.382;2022-11-15T01:49:19;14.20;72.50
34137;DHT22;20414;50.860;4.382;2022-11-15T01:51:46;14.20;72.50
34137;DHT22;20414;50.860;4.382;2022-11-15T01:54:16;14.20;72.50
34137;DHT22;20414;50.860;4.382;2022-11-15T01:56:55;14.20;72.40
34137;DHT22;20414;50.860;4.382;2022-11-15T01:59:23;14.20;72.40
34137;DHT22;20414;50.860;4.382;2022-11-15T02:01:49;14.20;72.40
34137;DHT22;20414;50.860;4.382;2022-11-15T02:04:25;14.20;72.40
34137;DHT22;20414;50.860;4.382;2022-11-15T02:06:53;14.20;72.40
34137;DHT22;20414;50.860;4.382;2022-11-15T02:09:19;14.20;72.40
34137;DHT22;20414;50.860;4.382;2022-11-15T02:11:46;14.20;72.40
34137;DHT22;20414;50.860;4.382;2022-11-15T02:14:14;14.20;72.40
34137;DHT22;20414;50.860;4.382;2022-11-15T02:31:13;14.20;72.40
34137;DHT22;20414;50.860;4.382;2022-11-15T02:33:59;14.20;72.40
34137;DHT22;20414;50.860;4.382;2022-11-15T02:39:02;14.20;72.30
34137;DHT22;20414;50.860;4.382;2022-11-15T02:44:12;14.20;72.40
34137;DHT22;20414;50.860;4.382;2022-11-15T02:47:00;14.20;72.40
34137;DHT22;20414;50.860;4.382;2022-11-15T02:49:46;14.20;72.30
34137;DHT22;20414;50.860;4.382;2022-11-15T02:52:19;14.20;72.30
34137;DHT22;20414;50.860;4.382;2022-11-15T02:54:56;14.20;72.30
34137;DHT22;20414;50.860;4.382;2022-11-15T03:08:29;14.20;72.30
34137;DHT22;20414;50.860;4.382;2022-11-15T03:11:09;14.20;72.30
34137;DHT22;20414;50.860;4.382;2022-11-15T03:14:02;14.20;72.30
34137;DHT22;20414;50.860;4.382;2022-11-15T03:16:46;14.20;72.30
34137;DHT22;20414;50.860;4.382;2022-11-15T03:21:56;14.20;72.30
34137;DHT22;20414;50.860;4.382;2022-11-15T03:24:24;14.20;72.30
34137;DHT22;20414;50.860;4.382;2022-11-15T03:26:53;14.20;73.00
34137;DHT22;20414;50.860;4.382;2022-11-15T03:29:24;14.20;72.30
34137;DHT22;20414;50.860;4.382;2022-11-15T03:31:55;14.20;72.30
34137;DHT22;20414;50.860;4.382;2022-11-15T03:34:32;14.20;72.30
34137;DHT22;20414;50.860;4.382;2022-11-15T03:37:00;14.20;72.30
34137;DHT22;20414;50.860;4.382;2022-11-15T03:39:26;14.20;72.30
34137;DHT22;20414;50.860;4.382;2022-11-15T03:44:57;14.30;72.30
34137;DHT22;20414;50.860;4.382;2022-11-15T03:50:15;14.20;72.30
34137;DHT22;20414;50.860;4.382;2022-11-15T03:52:42;14.20;72.20
34137;DHT22;20414;50.860;4.382;2022-11-15T03:55:12;14.20;72.30
34137;DHT22;20414;50.860;4.382;2022-11-15T03:57:39;14.20;72.30
34137;DHT22;20414;50.860;4.382;2022-11-15T04:00:05;14.20;72.20
34137;DHT22;20414;50.860;4.382;2022-11-15T04:02:31;14.20;72.20
34137;DHT22;20414;50.860;4.382;2022-11-15T04:04:56;14.20;72.30
34137;DHT22;20414;50.860;4.382;2022-11-15T04:07:22;14.20;72.30
34137;DHT22;20414;50.860;4.382;2022-11-15T04:09:48;14.20;72.20
34137;DHT22;20414;50.860;4.382;2022-11-15T04:12:37;14.20;72.30
34137;DHT22;20414;50.860;4.382;2022-11-15T04:15:09;14.20;72.20
34137;DHT22;20414;50.860;4.382;2022-11-15T04:17:39;14.30;72.30
34137;DHT22;20414;50.860;4.382;2022-11-15T04:20:06;14.20;72.30
34137;DHT22;20414;50.860;4.382;2022-11-15T04:22:55;14.20;72.20
34137;DHT22;20414;50.860;4.382;2022-11-15T04:25:40;14.30;72.30
34137;DHT22;20414;50.860;4.382;2022-11-15T04:28:06;14.20;72.90
34137;DHT22;20414;50.860;4.382;2022-11-15T04:30:32;14.20;72.20
34137;DHT22;20414;50.860;4.382;2022-11-15T04:32:58;14.20;72.20
34137;DHT22;20414;50.860;4.382;2022-11-15T04:35:23;14.20;72.90
34137;DHT22;20414;50.860;4.382;2022-11-15T04:37:49;14.20;72.20
34137;DHT22;20414;50.860;4.382;2022-11-15T04:40:15;14.20;72.20
34137;DHT22;20414;50.860;4.382;2022-11-15T04:42:41;14.20;72.20
34137;DHT22;20414;50.860;4.382;2022-11-15T04:45:08;14.20;72.30
34137;DHT22;20414;50.860;4.382;2022-11-15T04:47:34;14.20;72.20
34137;DHT22;20414;50.860;4.382;2022-11-15T04:50:00;14.30;72.30
34137;DHT22;20414;50.860;4.382;2022-11-15T04:52:25;14.20;72.20
34137;DHT22;20414;50.860;4.382;2022-11-15T04:54:51;14.20;72.20
34137;DHT22;20414;50.860;4.382;2022-11-15T04:57:17;14.20;72.20
34137;DHT22;20414;50.860;4.382;2022-11-15T04:59:43;14.30;72.30
34137;DHT22;20414;50.860;4.382;2022-11-15T05:02:08;14.20;72.30
34137;DHT22;20414;50.860;4.382;2022-11-15T05:04:35;14.30;72.30
34137;DHT22;20414;50.860;4.382;2022-11-15T05:07:01;14.20;72.20
34137;DHT22;20414;50.860;4.382;2022-11-15T05:09:27;14.20;72.20
34137;DHT22;20414;50.860;4.382;2022-11-15T05:11:53;14.30;72.30
34137;DHT22;20414;50.860;4.382;2022-11-15T05:14:18;14.20;72.20
34137;DHT22;20414;50.860;4.382;2022-11-15T05:16:44;14.20;72.20
34137;DHT22;20414;50.860;4.382;2022-11-15T05:19:10;14.20;72.20
34137;DHT22;20414;50.860;4.382;2022-11-15T05:21:36;14.20;72.20
34137;DHT22;20414;50.860;4.382;2022-11-15T05:24:02;14.20;72.20
34137;DHT22;20414;50.860;4.382;2022-11-15T05:26:28;14.20;72.20
34137;DHT22;20414;50.860;4.382;2022-11-15T05:28:56;14.20;72.20
34137;DHT22;20414;50.860;4.382;2022-11-15T05:31:23;14.20;72.20
34137;DHT22;20414;50.860;4.382;2022-11-15T05:33:50;14.20;72.20
34137;DHT22;20414;50.860;4.382;2022-11-15T05:36:37;14.20;72.20
34137;DHT22;20414;50.860;4.382;2022-11-15T05:39:05;14.20;72.20
34137;DHT22;20414;50.860;4.382;2022-11-15T05:41:34;14.30;72.30
34137;DHT22;20414;50.860;4.382;2022-11-15T05:44:01;14.20;72.20
34137;DHT22;20414;50.860;4.382;2022-11-15T05:46:27;14.20;72.20
34137;DHT22;20414;50.860;4.382;2022-11-15T05:48:53;14.30;72.30
34137;DHT22;20414;50.860;4.382;2022-11-15T05:51:21;14.30;72.20
34137;DHT22;20414;50.860;4.382;2022-11-15T05:53:48;14.30;72.30
34137;DHT22;20414;50.860;4.382;2022-11-15T05:56:14;14.20;72.20
34137;DHT22;20414;50.860;4.382;2022-11-15T05:58:40;14.30;72.30
34137;DHT22;20414;50.860;4.382;2022-11-15T06:01:06;14.30;72.20
34137;DHT22;20414;50.860;4.382;2022-11-15T06:03:32;14.20;72.20
34137;DHT22;20414;50.860;4.382;2022-11-15T06:05:58;14.20;72.20
34137;DHT22;20414;50.860;4.382;2022-11-15T06:08:23;14.20;72.20
34137;DHT22;20414;50.860;4.382;2022-11-15T06:10:49;14.30;72.30
34137;DHT22;20414;50.860;4.382;2022-11-15T06:13:15;14.20;72.20
34137;DHT22;20414;50.860;4.382;2022-11-15T06:15:40;14.20;72.20
34137;DHT22;20414;50.860;4.382;2022-11-15T06:18:06;14.20;72.20
34137;DHT22;20414;50.860;4.382;2022-11-15T06:20:31;14.30;72.30
34137;DHT22;20414;50.860;4.382;2022-11-15T06:23:02;14.20;72.20
34137;DHT22;20414;50.860;4.382;2022-11-15T06:25:29;14.20;72.20
34137;DHT22;20414;50.860;4.382;2022-11-15T06:27:56;14.20;72.20
34137;DHT22;20414;50.860;4.382;2022-11-15T06:30:24;14.20;72.20
34137;DHT22;20414;50.860;4.382;2022-11-15T06:32:50;14.20;72.20
34137;DHT22;20414;50.860;4.382;2022-11-15T06:35:16;14.20;72.20
34137;DHT22;20414;50.860;4.382;2022-11-15T06:37:41;14.20;72.20
34137;DHT22;20414;50.860;4.382;2022-11-15T06:40:09;14.20;72.20
34137;DHT22;20414;50.860;4.382;2022-11-15T06:42:35;14.20;72.20
34137;DHT22;20414;50.860;4.382;2022-11-15T06:45:01;14.20;72.20
34137;DHT22;20414;50.860;4.382;2022-11-15T06:47:27;14.20;72.20
34137;DHT22;20414;50.860;4.382;2022-11-15T06:49:53;14.20;72.20
34137;DHT22;20414;50.860;4.382;2022-11-15T06:52:19;14.30;72.30
34137;DHT22;20414;50.860;4.382;2022-11-15T06:54:45;14.20;72.30
34137;DHT22;20414;50.860;4.382;2022-11-15T06:57:11;14.20;72.20
34137;DHT22;20414;50.860;4.382;2022-11-15T06:59:36;14.20;72.20
34137;DHT22;20414;50.860;4.382;2022-11-15T07:02:02;14.20;72.20
34137;DHT22;20414;50.860;4.382;2022-11-15T07:04:28;14.20;72.20
34137;DHT22;20414;50.860;4.382;2022-11-15T07:06:54;14.20;72.20
34137;DHT22;20414;50.860;4.382;2022-11-15T07:09:19;14.20;72.30
34137;DHT22;20414;50.860;4.382;2022-11-15T07:11:45;14.20;72.30
34137;DHT22;20414;50.860;4.382;2022-11-15T07:14:10;14.20;72.20
34137;DHT22;20414;50.860;4.382;2022-11-15T07:16:36;14.20;72.30
34137;DHT22;20414;50.860;4.382;2022-11-15T07:19:02;14.20;72.20
34137;DHT22;20414;50.860;4.382;2022-11-15T07:21:28;14.20;72.20
34137;DHT22;20414;50.860;4.382;2022-11-15T07:23:54;14.30;72.30
34137;DHT22;20414;50.860;4.382;2022-11-15T07:26:20;14.20;72.30
34137;DHT22;20414;50.860;4.382;2022-11-15T07:28:46;14.20;72.30
34137;DHT22;20414;50.860;4.382;2022-11-15T07:31:11;14.20;72.30
34137;DHT22;20414;50.860;4.382;2022-11-15T07:33:37;14.20;72.30
34137;DHT22;20414;50.860;4.382;2022-11-15T07:36:04;14.20;72.20
34137;DHT22;20414;50.860;4.382;2022-11-15T07:38:31;14.20;72.30
34137;DHT22;20414;50.860;4.382;2022-11-15T07:40:58;14.20;72.30
34137;DHT22;20414;50.860;4.382;2022-11-15T07:43:25;14.20;72.90
34137;DHT22;20414;50.860;4.382;2022-11-15T07:45:51;14.20;72.30
34137;DHT22;20414;50.860;4.382;2022-11-15T07:48:17;14.20;72.30
34137;DHT22;20414;50.860;4.382;2022-11-15T07:50:42;14.20;72.30
34137;DHT22;20414;50.860;4.382;2022-11-15T07:53:09;14.20;72.30
34137;DHT22;20414;50.860;4.382;2022-11-15T07:55:35;14.20;72.30
34137;DHT22;20414;50.860;4.382;2022-11-15T07:58:05;14.20;72.30
34137;DHT22;20414;50.860;4.382;2022-11-15T08:00:31;14.20;72.20
34137;DHT22;20414;50.860;4.382;2022-11-15T08:03:05;14.20;72.20
34137;DHT22;20414;50.860;4.382;2022-11-15T08:05:31;14.20;72.30
34137;DHT22;20414;50.860;4.382;2022-11-15T08:07:57;14.20;72.30
34137;DHT22;20414;50.860;4.382;2022-11-15T08:10:22;14.20;72.30
34137;DHT22;20414;50.860;4.382;2022-11-15T08:12:57;14.20;72.30
34137;DHT22;20414;50.860;4.382;2022-11-15T08:15:22;14.20;72.30
34137;DHT22;20414;50.860;4.382;2022-11-15T08:17:55;14.20;72.30
34137;DHT22;20414;50.860;4.382;2022-11-15T08:20:21;14.20;72.30
34137;DHT22;20414;50.860;4.382;2022-11-15T08:22:46;14.20;72.30
34137;DHT22;20414;50.860;4.382;2022-11-15T08:25:12;14.20;72.30
34137;DHT22;20414;50.860;4.382;2022-11-15T08:27:38;14.20;72.20
34137;DHT22;20414;50.860;4.382;2022-11-15T08:30:04;14.20;72.30
34137;DHT22;20414;50.860;4.382;2022-11-15T08:32:31;14.20;72.20
34137;DHT22;20414;50.860;4.382;2022-11-15T08:34:56;14.20;72.20
34137;DHT22;20414;50.860;4.382;2022-11-15T08:37:22;14.20;72.30
34137;DHT22;20414;50.860;4.382;2022-11-15T08:39:48;14.20;72.30
34137;DHT22;20414;50.860;4.382;2022-11-15T08:42:13;14.30;72.40
34137;DHT22;20414;50.860;4.382;2022-11-15T08:44:42;14.20;72.30
34137;DHT22;20414;50.860;4.382;2022-11-15T08:47:10;14.20;72.30
34137;DHT22;20414;50.860;4.382;2022-11-15T08:49:36;14.20;72.30
34137;DHT22;20414;50.860;4.382;2022-11-15T08:52:02;14.20;72.30
34137;DHT22;20414;50.860;4.382;2022-11-15T08:54:28;14.20;72.20
34137;DHT22;20414;50.860;4.382;2022-11-15T08:56:54;14.20;72.30
34137;DHT22;20414;50.860;4.382;2022-11-15T08:59:19;14.20;72.30
34137;DHT22;20414;50.860;4.382;2022-11-15T09:01:45;14.20;72.30
34137;DHT22;20414;50.860;4.382;2022-11-15T09:04:10;14.30;72.30
34137;DHT22;20414;50.860;4.382;2022-11-15T09:06:36;14.20;72.30
34137;DHT22;20414;50.860;4.382;2022-11-15T09:09:03;14.20;72.30
34137;DHT22;20414;50.860;4.382;2022-11-15T09:11:29;14.20;72.20
34137;DHT22;20414;50.860;4.382;2022-11-15T09:13:54;14.20;72.20
34137;DHT22;20414;50.860;4.382;2022-11-15T09:16:20;14.20;72.20
34137;DHT22;20414;50.860;4.382;2022-11-15T09:18:45;14.20;72.20
34137;DHT22;20414;50.860;4.382;2022-11-15T09:21:11;14.20;72.20
34137;DHT22;20414;50.860;4.382;2022-11-15T09:23:37;14.30;72.30
34137;DHT22;20414;50.860;4.382;2022-11-15T09:26:04;14.30;72.30
34137;DHT22;20414;50.860;4.382;2022-11-15T09:28:31;14.30;72.30
34137;DHT22;20414;50.860;4.382;2022-11-15T09:30:57;14.20;72.20
34137;DHT22;20414;50.860;4.382;2022-11-15T09:33:24;14.30;72.30
34137;DHT22;20414;50.860;4.382;2022-11-15T09:35:50;14.20;72.20
34137;DHT22;20414;50.860;4.382;2022-11-15T09:38:16;14.30;72.30
34137;DHT22;20414;50.860;4.382;2022-11-15T09:40:42;14.30;72.30
34137;DHT22;20414;50.860;4.382;2022-11-15T09:49:03;14.30;72.20
34137;DHT22;20414;50.860;4.382;2022-11-15T09:51:34;14.30;72.20
34137;DHT22;20414;50.860;4.382;2022-11-15T09:54:27;14.30;72.20
34137;DHT22;20414;50.860;4.382;2022-11-15T09:56:51;14.30;72.20
34137;DHT22;20414;50.860;4.382;2022-11-15T10:04:46;14.30;72.20
34137;DHT22;20414;50.860;4.382;2022-11-15T10:07:50;14.30;72.20
34137;DHT22;20414;50.860;4.382;2022-11-15T10:12:54;14.30;72.20
34137;DHT22;20414;50.860;4.382;2022-11-15T10:15:21;14.30;72.20
34137;DHT22;20414;50.860;4.382;2022-11-15T10:18:13;14.30;72.10
34137;DHT22;20414;50.860;4.382;2022-11-15T10:21:02;14.30;72.10
34137;DHT22;20414;50.860;4.382;2022-11-15T10:23:34;14.30;72.10
34137;DHT22;20414;50.860;4.382;2022-11-15T10:26:00;14.30;72.10
34137;DHT22;20414;50.860;4.382;2022-11-15T10:28:28;14.30;72.10
34137;DHT22;20414;50.860;4.382;2022-11-15T10:30:59;14.30;72.00
34137;DHT22;20414;50.860;4.382;2022-11-15T10:36:20;14.30;72.00
34137;DHT22;20414;50.860;4.382;2022-11-15T10:44:24;14.40;72.10
34137;DHT22;20414;50.860;4.382;2022-11-15T10:51:56;14.40;72.20
34137;DHT22;20414;50.860;4.382;2022-11-15T10:56:59;14.40;72.10
34137;DHT22;20414;50.860;4.382;2022-11-15T10:59:29;14.40;72.10
34137;DHT22;20414;50.860;4.382;2022-11-15T11:01:56;14.40;72.10
34137;DHT22;20414;50.860;4.382;2022-11-15T11:04:22;14.40;72.20
34137;DHT22;20414;50.860;4.382;2022-11-15T11:06:49;14.40;72.10
34137;DHT22;20414;50.860;4.382;2022-11-15T11:11:53;14.40;72.10
34137;DHT22;20414;50.860;4.382;2022-11-15T11:14:23;14.40;72.10
34137;DHT22;20414;50.860;4.382;2022-11-15T11:23:19;14.40;72.10
34137;DHT22;20414;50.860;4.382;2022-11-15T11:31:07;14.40;72.10
34137;DHT22;20414;50.860;4.382;2022-11-15T11:34:11;14.40;72.10
34137;DHT22;20414;50.860;4.382;2022-11-15T11:37:03;14.40;72.10
34137;DHT22;20414;50.860;4.382;2022-11-15T11:42:35;14.40;72.00
34137;DHT22;20414;50.860;4.382;2022-11-15T11:45:20;14.40;72.00
34137;DHT22;20414;50.860;4.382;2022-11-15T11:48:20;14.40;72.00
34137;DHT22;20414;50.860;4.382;2022-11-15T11:50:49;14.40;72.00
34137;DHT22;20414;50.860;4.382;2022-11-15T11:56:32;14.40;72.00
34137;DHT22;20414;50.860;4.382;2022-11-15T12:17:16;14.40;71.90
34137;DHT22;20414;50.860;4.382;2022-11-15T12:19:46;14.40;71.90
34137;DHT22;20414;50.860;4.382;2022-11-15T12:22:22;14.40;71.80
34137;DHT22;20414;50.860;4.382;2022-11-15T12:27:57;14.40;71.80
34137;DHT22;20414;50.860;4.382;2022-11-15T12:30:38;14.40;71.80
34137;DHT22;20414;50.860;4.382;2022-11-15T12:33:16;14.40;72.50
34137;DHT22;20414;50.860;4.382;2022-11-15T12:35:59;14.40;71.80
34137;DHT22;20414;50.860;4.382;2022-11-15T12:38:57;14.40;71.80
34137;DHT22;20414;50.860;4.382;2022-11-15T12:41:34;14.50;71.90
34137;DHT22;20414;50.860;4.382;2022-11-15T12:44:00;14.50;71.90
34137;DHT22;20414;50.860;4.382;2022-11-15T12:48:59;14.50;71.90
34137;DHT22;20414;50.860;4.382;2022-11-15T13:04:55;14.50;71.80
34137;DHT22;20414;50.860;4.382;2022-11-15T13:17:47;14.50;71.70
34137;DHT22;20414;50.860;4.382;2022-11-15T13:28:33;14.50;71.80
34137;DHT22;20414;50.860;4.382;2022-11-15T13:33:48;14.50;71.80
34137;DHT22;20414;50.860;4.382;2022-11-15T13:36:20;14.50;71.80
34137;DHT22;20414;50.860;4.382;2022-11-15T13:39:02;14.50;71.80
34137;DHT22;20414;50.860;4.382;2022-11-15T13:41:34;14.50;71.80
34137;DHT22;20414;50.860;4.382;2022-11-15T13:44:01;14.50;71.80
34137;DHT22;20414;50.860;4.382;2022-11-15T13:46:31;14.50;72.40
34137;DHT22;20414;50.860;4.382;2022-11-15T13:49:01;14.50;71.80
34137;DHT22;20414;50.860;4.382;2022-11-15T13:51:38;14.50;71.80
34137;DHT22;20414;50.860;4.382;2022-11-15T13:57:02;14.50;71.80
34137;DHT22;20414;50.860;4.382;2022-11-15T13:59:35;14.50;71.80
34137;DHT22;20414;50.860;4.382;2022-11-15T14:02:16;14.50;71.80
34137;DHT22;20414;50.860;4.382;2022-11-15T14:04:57;14.50;71.70
34137;DHT22;20414;50.860;4.382;2022-11-15T14:07:26;14.50;71.80
34137;DHT22;20414;50.860;4.382;2022-11-15T14:09:52;14.50;71.80
34137;DHT22;20414;50.860;4.382;2022-11-15T14:14:56;14.50;71.80
34137;DHT22;20414;50.860;4.382;2022-11-15T14:19:55;14.50;71.90
34137;DHT22;20414;50.860;4.382;2022-11-15T14:22:23;14.50;71.80
34137;DHT22;20414;50.860;4.382;2022-11-15T14:25:17;14.50;71.80
34137;DHT22;20414;50.860;4.382;2022-11-15T14:30:30;14.50;71.80
34137;DHT22;20414;50.860;4.382;2022-11-15T14:32:56;14.50;71.80
34137;DHT22;20414;50.860;4.382;2022-11-15T14:35:23;14.50;71.80
34137;DHT22;20414;50.860;4.382;2022-11-15T14:37:49;14.50;71.80
34137;DHT22;20414;50.860;4.382;2022-11-15T14:40:20;14.50;71.80
34137;DHT22;20414;50.860;4.382;2022-11-15T14:42:47;14.50;71.80
34137;DHT22;20414;50.860;4.382;2022-11-15T14:45:20;14.50;71.70
34137;DHT22;20414;50.860;4.382;2022-11-15T14:47:47;14.50;71.70
34137;DHT22;20414;50.860;4.382;2022-11-15T14:50:18;14.50;71.70
34137;DHT22;20414;50.860;4.382;2022-11-15T14:52:44;14.50;71.70
34137;DHT22;20414;50.860;4.382;2022-11-15T14:55:16;14.50;71.70
34137;DHT22;20414;50.860;4.382;2022-11-15T14:57:42;14.50;71.70
34137;DHT22;20414;50.860;4.382;2022-11-15T15:00:08;14.50;71.70
34137;DHT22;20414;50.860;4.382;2022-11-15T15:02:35;14.60;71.70
34137;DHT22;20414;50.860;4.382;2022-11-15T15:05:14;14.50;71.60
34137;DHT22;20414;50.860;4.382;2022-11-15T15:07:39;14.50;71.60
34137;DHT22;20414;50.860;4.382;2022-11-15T15:10:05;14.50;71.60
34137;DHT22;20414;50.860;4.382;2022-11-15T15:12:31;14.60;71.70
34137;DHT22;20414;50.860;4.382;2022-11-15T15:14:57;14.50;71.60
34137;DHT22;20414;50.860;4.382;2022-11-15T15:17:22;14.50;72.30
34137;DHT22;20414;50.860;4.382;2022-11-15T15:19:48;14.50;71.60
34137;DHT22;20414;50.860;4.382;2022-11-15T15:22:19;14.50;71.60
34137;DHT22;20414;50.860;4.382;2022-11-15T15:24:47;14.60;71.70
34137;DHT22;20414;50.860;4.382;2022-11-15T15:27:13;14.50;71.60
34137;DHT22;20414;50.860;4.382;2022-11-15T15:29:39;14.50;71.60
34137;DHT22;20414;50.860;4.382;2022-11-15T15:32:05;14.50;71.60
34137;DHT22;20414;50.860;4.382;2022-11-15T15:34:31;14.50;71.60
34137;DHT22;20414;50.860;4.382;2022-11-15T15:37:27;14.50;71.60
34137;DHT22;20414;50.860;4.382;2022-11-15T15:39:54;14.50;71.90
34137;DHT22;20414;50.860;4.382;2022-11-15T15:42:21;14.50;71.60
34137;DHT22;20414;50.860;4.382;2022-11-15T15:44:47;14.50;71.60
34137;DHT22;20414;50.860;4.382;2022-11-15T15:47:23;14.50;71.90
34137;DHT22;20414;50.860;4.382;2022-11-15T15:49:50;14.60;71.70
34137;DHT22;20414;50.860;4.382;2022-11-15T15:52:16;14.60;71.70
34137;DHT22;20414;50.860;4.382;2022-11-15T15:54:42;14.60;71.70
34137;DHT22;20414;50.860;4.382;2022-11-15T15:57:11;14.60;71.70
34137;DHT22;20414;50.860;4.382;2022-11-15T15:59:37;14.60;71.70
34137;DHT22;20414;50.860;4.382;2022-11-15T16:02:03;14.50;71.60
34137;DHT22;20414;50.860;4.382;2022-11-15T16:04:28;14.50;71.60
34137;DHT22;20414;50.860;4.382;2022-11-15T16:06:58;14.50;71.60
34137;DHT22;20414;50.860;4.382;2022-11-15T16:09:24;14.50;71.60
34137;DHT22;20414;50.860;4.382;2022-11-15T16:12:09;14.60;71.70
34137;DHT22;20414;50.860;4.382;2022-11-15T16:14:35;14.60;71.70
34137;DHT22;20414;50.860;4.382;2022-11-15T16:17:01;14.60;71.70
34137;DHT22;20414;50.860;4.382;2022-11-15T16:19:26;14.50;71.60
34137;DHT22;20414;50.860;4.382;2022-11-15T16:21:52;14.50;71.60
34137;DHT22;20414;50.860;4.382;2022-11-15T16:24:19;14.50;71.60
34137;DHT22;20414;50.860;4.382;2022-11-15T16:26:45;14.60;71.70
34137;DHT22;20414;50.860;4.382;2022-11-15T16:29:11;14.60;71.70
34137;DHT22;20414;50.860;4.382;2022-11-15T16:31:37;14.60;71.70
34137;DHT22;20414;50.860;4.382;2022-11-15T16:34:03;14.60;71.70
34137;DHT22;20414;50.860;4.382;2022-11-15T16:36:31;14.60;71.60
34137;DHT22;20414;50.860;4.382;2022-11-15T16:38:58;14.60;71.70
34137;DHT22;20414;50.860;4.382;2022-11-15T16:41:23;14.60;71.70
34137;DHT22;20414;50.860;4.382;2022-11-15T16:43:49;14.60;71.60
34137;DHT22;20414;50.860;4.382;2022-11-15T16:46:20;14.60;71.60
34137;DHT22;20414;50.860;4.382;2022-11-15T16:48:47;14.50;71.60
34137;DHT22;20414;50.860;4.382;2022-11-15T16:51:13;14.50;71.60
34137;DHT22;20414;50.860;4.382;2022-11-15T16:53:39;14.60;71.60
34137;DHT22;20414;50.860;4.382;2022-11-15T16:56:19;14.60;71.70
34137;DHT22;20414;50.860;4.382;2022-11-15T16:58:45;14.60;71.60
34137;DHT22;20414;50.860;4.382;2022-11-15T17:01:19;14.50;71.60
34137;DHT22;20414;50.860;4.382;2022-11-15T17:03:46;14.60;71.60
34137;DHT22;20414;50.860;4.382;2022-11-15T17:06:12;14.60;71.70
34137;DHT22;20414;50.860;4.382;2022-11-15T17:08:38;14.60;71.60
34137;DHT22;20414;50.860;4.382;2022-11-15T17:11:05;14.60;71.70
34137;DHT22;20414;50.860;4.382;2022-11-15T17:13:31;14.60;71.60
34137;DHT22;20414;50.860;4.382;2022-11-15T17:16:09;14.60;71.60
34137;DHT22;20414;50.860;4.382;2022-11-15T17:18:35;14.60;71.70
34137;DHT22;20414;50.860;4.382;2022-11-15T17:21:15;14.60;71.60
34137;DHT22;20414;50.860;4.382;2022-11-15T17:23:41;14.60;71.60
34137;DHT22;20414;50.860;4.382;2022-11-15T17:26:08;14.60;71.60
34137;DHT22;20414;50.860;4.382;2022-11-15T17:28:36;14.60;71.60
34137;DHT22;20414;50.860;4.382;2022-11-15T17:31:08;14.60;71.60
34137;DHT22;20414;50.860;4.382;2022-11-15T17:33:35;14.60;71.60
34137;DHT22;20414;50.860;4.382;2022-11-15T17:36:03;14.60;71.60
34137;DHT22;20414;50.860;4.382;2022-11-15T17:38:29;14.60;71.60
34137;DHT22;20414;50.860;4.382;2022-11-15T17:41:10;14.60;71.60
34137;DHT22;20414;50.860;4.382;2022-11-15T17:43:37;14.60;72.30
34137;DHT22;20414;50.860;4.382;2022-11-15T17:46:07;14.60;71.60
34137;DHT22;20414;50.860;4.382;2022-11-15T17:48:33;14.60;71.60
34137;DHT22;20414;50.860;4.382;2022-11-15T17:51:02;14.60;71.60
34137;DHT22;20414;50.860;4.382;2022-11-15T17:53:36;14.60;71.60
34137;DHT22;20414;50.860;4.382;2022-11-15T17:56:04;14.60;71.60
34137;DHT22;20414;50.860;4.382;2022-11-15T17:58:30;14.60;71.60
34137;DHT22;20414;50.860;4.382;2022-11-15T18:03:38;14.60;71.50
34137;DHT22;20414;50.860;4.382;2022-11-15T18:06:04;14.60;71.50
34137;DHT22;20414;50.860;4.382;2022-11-15T18:08:31;14.50;71.50
34137;DHT22;20414;50.860;4.382;2022-11-15T18:13:30;14.60;71.50
34137;DHT22;20414;50.860;4.382;2022-11-15T18:15:55;14.60;71.50
34137;DHT22;20414;50.860;4.382;2022-11-15T18:18:27;14.60;71.60
34137;DHT22;20414;50.860;4.382;2022-11-15T18:21:01;14.60;71.60
34137;DHT22;20414;50.860;4.382;2022-11-15T18:23:28;14.60;71.60
34137;DHT22;20414;50.860;4.382;2022-11-15T18:25:54;14.60;71.50